createdAt,value
2022-12-08T00:02:00.915Z,76.08
2022-12-08T00:04:30.606Z,76.84
2022-12-08T00:07:16.457Z,76.98
2022-12-08T00:09:46.743Z,77.36
2022-12-08T00:12:18.106Z,76.30
2022-12-08T00:14:47.656Z,75.90
2022-12-08T00:17:17.080Z,75.88
2022-12-08T00:19:47.181Z,76.68
2022-12-08T00:22:15.333Z,75.92
2022-12-08T00:24:45.714Z,75.66
2022-12-08T00:27:15.722Z,75.63
2022-12-08T00:29:46.399Z,76.44
2022-12-08T00:32:14.044Z,76.23
2022-12-08T00:34:45.412Z,76.06
2022-12-08T00:37:12.499Z,76.88
2022-12-08T00:39:39.756Z,77.10
2022-12-08T00:42:12.494Z,77.58
2022-12-08T00:44:45.071Z,77.40
2022-12-08T00:47:13.619Z,77.42
2022-12-08T00:49:41.385Z,77.46
2022-12-08T00:52:09.140Z,77.62
2022-12-08T00:54:36.550Z,78.32
2022-12-08T00:57:06.330Z,77.49
2022-12-08T00:59:33.359Z,76.94
2022-12-08T01:02:02.814Z,77.06
2022-12-08T01:04:33.043Z,76.94
2022-12-08T01:07:00.323Z,77.07
2022-12-08T01:09:27.531Z,77.56
2022-12-08T01:11:54.913Z,76.89
2022-12-08T01:14:22.574Z,77.21
2022-12-08T01:16:49.846Z,76.77
2022-12-08T01:19:19.927Z,76.68
2022-12-08T01:21:50.128Z,76.62
2022-12-08T01:24:21.601Z,76.15
2022-12-08T01:26:50.627Z,76.60
2022-12-08T01:29:18.419Z,76.63
2022-12-08T01:31:45.635Z,76.69
2022-12-08T01:34:13.153Z,76.78
2022-12-08T01:36:44.447Z,76.58
2022-12-08T01:39:17.161Z,76.11
2022-12-08T01:41:45.543Z,76.26
2022-12-08T01:44:12.769Z,77.35
2022-12-08T01:46:43.136Z,75.77
2022-12-08T01:49:18.790Z,76.15
2022-12-08T01:52:05.053Z,76.41
2022-12-08T01:54:42.363Z,75.92
2022-12-08T01:57:41.555Z,75.59
2022-12-08T02:00:16.924Z,75.97
2022-12-08T02:03:00.294Z,75.48
2022-12-08T02:05:37.873Z,74.78
2022-12-08T02:08:12.764Z,75.18
2022-12-08T02:10:45.329Z,75.75
2022-12-08T02:13:18.933Z,74.45
2022-12-08T02:16:09.195Z,75.16
2022-12-08T02:19:22.447Z,75.28
2022-12-08T02:22:24.961Z,74.41
2022-12-08T02:25:12.075Z,74.84
2022-12-08T02:28:00.167Z,74.57
2022-12-08T02:31:14.112Z,74.88
2022-12-08T02:34:24.935Z,74.95
2022-12-08T02:36:59.552Z,74.83
2022-12-08T02:39:56.935Z,74.46
2022-12-08T02:42:40.218Z,73.68
2022-12-08T02:45:23.081Z,74.43
2022-12-08T02:47:53.052Z,74.13
2022-12-08T02:50:20.614Z,73.76
2022-12-08T02:52:49.053Z,73.74
2022-12-08T02:55:31.842Z,74.05
2022-12-08T02:58:07.745Z,73.88
2022-12-08T03:01:07.616Z,74.61
2022-12-08T03:03:44.031Z,74.39
2022-12-08T03:06:51.548Z,73.22
2022-12-08T03:09:44.920Z,74.08
2022-12-08T03:12:39.825Z,73.21
2022-12-08T03:15:13.684Z,73.66
2022-12-08T03:17:50.352Z,73.76
2022-12-08T03:20:26.108Z,73.49
2022-12-08T03:22:57.661Z,73.14
2022-12-08T03:25:32.067Z,72.78
2022-12-08T03:28:00.413Z,73.67
2022-12-08T03:30:32.326Z,73.34
2022-12-08T03:33:14.466Z,72.85
2022-12-08T03:35:43.078Z,72.76
2022-12-08T03:38:14.877Z,72.50
2022-12-08T03:41:05.080Z,72.69
2022-12-08T03:43:32.433Z,73.87
2022-12-08T03:45:59.981Z,73.50
2022-12-08T03:48:27.289Z,74.17
2022-12-08T03:50:54.463Z,72.55
2022-12-08T03:53:21.599Z,73.13
2022-12-08T03:55:48.771Z,73.55
2022-12-08T03:58:16.388Z,72.68
2022-12-08T04:00:48.516Z,72.58
2022-12-08T04:03:15.624Z,72.43
2022-12-08T04:05:45.188Z,73.61
2022-12-08T04:08:13.153Z,72.54
2022-12-08T04:10:42.498Z,72.60
2022-12-08T04:13:12.104Z,72.47
2022-12-08T04:15:44.323Z,72.93
2022-12-08T04:18:11.412Z,72.87
2022-12-08T04:20:44.551Z,73.12
2022-12-08T04:23:13.193Z,72.43
2022-12-08T04:25:40.770Z,71.90
2022-12-08T04:28:07.986Z,71.74
2022-12-08T04:30:35.533Z,72.07
2022-12-08T04:33:03.169Z,72.45
2022-12-08T04:35:34.205Z,74.12
2022-12-08T04:38:04.476Z,72.37
2022-12-08T04:40:35.643Z,72.24
2022-12-08T04:43:06.445Z,72.95
2022-12-08T04:45:46.513Z,72.54
2022-12-08T04:48:14.077Z,72.92
2022-12-08T04:50:44.655Z,72.15
2022-12-08T04:53:13.236Z,73.80
2022-12-08T04:55:44.919Z,73.39
2022-12-08T04:58:18.183Z,73.58
2022-12-08T05:00:46.078Z,73.93
2022-12-08T05:03:28.293Z,74.09
2022-12-08T05:05:56.260Z,73.48
2022-12-08T05:08:23.470Z,73.45
2022-12-08T05:10:50.671Z,74.26
2022-12-08T05:13:17.747Z,73.63
2022-12-08T05:15:45.031Z,74.29
2022-12-08T05:18:12.253Z,74.38
2022-12-08T05:20:39.901Z,74.85
2022-12-08T05:23:12.981Z,74.95
2022-12-08T05:25:40.193Z,74.86
2022-12-08T05:28:39.488Z,75.56
2022-12-08T05:30:54.421Z,75.17
2022-12-08T05:33:24.059Z,75.21
2022-12-08T05:35:51.165Z,75.55
2022-12-08T05:38:18.461Z,75.53
2022-12-08T05:40:47.877Z,75.81
2022-12-08T05:43:15.348Z,74.67
2022-12-08T05:45:42.654Z,75.55
2022-12-08T05:48:16.148Z,74.61
2022-12-08T05:50:50.699Z,75.39
2022-12-08T05:53:20.525Z,74.54
2022-12-08T05:55:51.387Z,75.43
2022-12-08T05:58:21.718Z,75.76
2022-12-08T06:00:50.848Z,75.42
2022-12-08T06:03:19.941Z,76.01
2022-12-08T06:05:48.099Z,75.09
2022-12-08T06:08:15.948Z,75.06
2022-12-08T06:10:45.968Z,75.36
2022-12-08T06:13:16.597Z,75.67
2022-12-08T06:15:43.759Z,75.26
2022-12-08T06:18:12.075Z,75.65
2022-12-08T06:20:39.201Z,75.23
2022-12-08T06:23:07.252Z,75.24
2022-12-08T06:25:34.685Z,74.38
2022-12-08T06:28:01.955Z,74.92
2022-12-08T06:30:29.287Z,75.41
2022-12-08T06:32:56.398Z,75.16
2022-12-08T06:35:23.488Z,76.66
2022-12-08T06:37:51.848Z,77.61
2022-12-08T06:40:18.998Z,77.81
2022-12-08T06:43:00.024Z,77.52
2022-12-08T06:45:37.831Z,77.57
2022-12-08T06:48:18.660Z,78.30
2022-12-08T06:50:45.967Z,78.04
2022-12-08T06:53:15.240Z,78.76
2022-12-08T06:56:02.566Z,78.59
2022-12-08T06:58:32.374Z,77.48
2022-12-08T07:01:09.756Z,77.00
2022-12-08T07:03:38.774Z,77.02
2022-12-08T07:06:06.709Z,76.02
2022-12-08T07:08:34.757Z,76.03
2022-12-08T07:11:09.100Z,74.88
2022-12-08T07:13:36.292Z,74.28
2022-12-08T07:16:08.008Z,74.73
2022-12-08T07:18:39.033Z,74.13
2022-12-08T07:21:12.355Z,72.97
2022-12-08T07:23:39.601Z,73.45
2022-12-08T07:26:11.904Z,74.37
2022-12-08T07:28:41.463Z,76.08
2022-12-08T07:31:18.100Z,75.29
2022-12-08T07:33:45.465Z,75.79
2022-12-08T07:36:13.057Z,75.50
2022-12-08T07:38:40.630Z,76.93
2022-12-08T07:41:19.649Z,75.58
2022-12-08T07:43:46.983Z,77.15
2022-12-08T07:46:20.954Z,75.27
2022-12-08T07:48:48.316Z,76.92
2022-12-08T07:51:16.954Z,75.40
2022-12-08T07:53:53.383Z,76.24
2022-12-08T07:56:21.955Z,75.69
2022-12-08T07:58:49.012Z,76.49
2022-12-08T08:01:45.753Z,75.58
2022-12-08T08:04:12.933Z,74.31
2022-12-08T08:06:40.109Z,74.47
2022-12-08T08:09:07.249Z,77.62
2022-12-08T08:11:34.384Z,76.84
2022-12-08T08:14:01.640Z,76.35
2022-12-08T08:16:33.496Z,77.37
2022-12-08T08:19:03.822Z,77.47
2022-12-08T08:21:45.409Z,77.92
2022-12-08T08:24:13.231Z,77.84
2022-12-08T08:26:40.311Z,78.22
2022-12-08T08:29:09.566Z,77.78
2022-12-08T08:31:36.669Z,76.36
2022-12-08T08:34:06.511Z,79.01
2022-12-08T08:36:34.056Z,77.52
2022-12-08T08:39:01.268Z,76.13
2022-12-08T08:41:28.334Z,76.81
2022-12-08T08:43:55.563Z,75.81
2022-12-08T08:46:22.835Z,78.90
2022-12-08T08:48:49.966Z,78.99
2022-12-08T08:51:17.116Z,79.25
2022-12-08T08:53:44.531Z,79.19
2022-12-08T08:56:20.781Z,79.51
2022-12-08T08:58:50.238Z,79.09
2022-12-08T09:01:25.906Z,80.27
2022-12-08T09:03:56.488Z,80.75
2022-12-08T09:06:25.020Z,78.89
2022-12-08T09:08:52.150Z,79.08
2022-12-08T09:11:23.436Z,80.39
2022-12-08T09:13:52.093Z,80.41
2022-12-08T09:16:22.807Z,81.74
2022-12-08T09:18:50.090Z,81.91
2022-12-08T09:21:24.130Z,82.14
2022-12-08T09:23:59.708Z,80.98
2022-12-08T09:26:28.393Z,79.96
2022-12-08T09:28:56.627Z,79.98
2022-12-08T09:31:24.800Z,78.31
2022-12-08T09:33:55.023Z,81.94
2022-12-08T09:36:22.590Z,80.30
2022-12-08T09:38:51.198Z,82.65
2022-12-08T09:42:09.440Z,83.18
2022-12-08T09:45:28.141Z,83.35
2022-12-08T09:48:14.247Z,84.27
2022-12-08T09:50:55.273Z,84.08
2022-12-08T09:53:24.899Z,84.63
2022-12-08T09:56:07.062Z,82.81
2022-12-08T09:58:55.154Z,84.55
2022-12-08T10:01:26.796Z,85.72
2022-12-08T10:03:56.038Z,85.67
2022-12-08T10:06:50.759Z,86.21
2022-12-08T10:10:00.384Z,88.61
2022-12-08T10:12:39.568Z,87.10
2022-12-08T10:15:52.967Z,87.84
2022-12-08T10:18:27.345Z,88.53
2022-12-08T10:21:05.495Z,89.27
2022-12-08T10:23:38.509Z,87.68
2022-12-08T10:26:12.538Z,88.25
2022-12-08T10:28:45.152Z,87.66
2022-12-08T10:31:25.113Z,88.62
2022-12-08T10:34:00.585Z,87.66
2022-12-08T10:36:47.353Z,88.35
2022-12-08T10:39:44.030Z,88.83
2022-12-08T10:42:14.243Z,89.62
2022-12-08T10:45:03.302Z,89.79
2022-12-08T10:47:35.903Z,90.63
2022-12-08T10:50:35.612Z,89.92
2022-12-08T10:53:08.716Z,89.33
2022-12-08T10:56:01.698Z,88.74
2022-12-08T10:58:42.792Z,86.74
2022-12-08T11:01:20.573Z,88.15
2022-12-08T11:03:53.018Z,90.08
2022-12-08T11:06:30.366Z,89.86
2022-12-08T11:09:05.458Z,88.41
2022-12-08T11:12:09.956Z,88.27
2022-12-08T11:14:43.050Z,88.30
2022-12-08T11:17:26.277Z,87.62
2022-12-08T11:20:20.983Z,88.20
2022-12-08T11:22:56.361Z,88.54
2022-12-08T11:25:25.806Z,87.20
2022-12-08T11:28:02.517Z,88.68
2022-12-08T11:30:42.075Z,88.98
2022-12-08T11:33:28.539Z,87.92
2022-12-08T11:36:07.702Z,88.00
2022-12-08T11:38:39.520Z,87.07
2022-12-08T11:41:16.434Z,87.88
2022-12-08T11:44:14.587Z,87.70
2022-12-08T11:46:54.246Z,87.91
2022-12-08T11:49:21.450Z,86.03
2022-12-08T11:52:02.739Z,86.39
2022-12-08T11:54:46.895Z,86.85
2022-12-08T11:57:20.848Z,86.12
2022-12-08T11:59:54.557Z,86.75
2022-12-08T12:02:32.055Z,85.80
2022-12-08T12:05:03.408Z,85.31
2022-12-08T12:08:06.586Z,86.03
2022-12-08T12:10:52.755Z,85.50
2022-12-08T12:13:49.984Z,86.63
2022-12-08T12:16:50.525Z,86.68
2022-12-08T12:19:20.518Z,87.35
2022-12-08T12:21:55.408Z,86.55
2022-12-08T12:24:40.287Z,86.94
2022-12-08T12:27:26.768Z,86.89
2022-12-08T12:30:00.216Z,87.33
2022-12-08T12:32:49.061Z,86.42
2022-12-08T12:35:36.093Z,86.99
2022-12-08T12:38:38.515Z,86.51
2022-12-08T12:41:06.268Z,86.17
2022-12-08T12:43:58.126Z,86.56
2022-12-08T12:46:28.212Z,85.98
2022-12-08T12:49:40.017Z,86.69
2022-12-08T12:52:16.278Z,86.34
2022-12-08T12:54:52.024Z,86.11
2022-12-08T12:57:18.876Z,85.68
2022-12-08T12:59:55.145Z,85.73
2022-12-08T13:02:31.384Z,86.43
2022-12-08T13:05:28.967Z,87.69
2022-12-08T13:08:07.901Z,86.85
2022-12-08T13:10:40.661Z,87.19
2022-12-08T13:13:10.749Z,86.38
2022-12-08T13:16:07.616Z,86.77
2022-12-08T13:18:50.737Z,86.15
2022-12-08T13:21:22.137Z,85.55
2022-12-08T13:24:08.880Z,85.82
2022-12-08T13:26:48.886Z,86.26
2022-12-08T13:29:26.829Z,86.06
2022-12-08T13:31:54.768Z,86.08
2022-12-08T13:34:41.731Z,85.92
2022-12-08T13:37:11.753Z,85.08
2022-12-08T13:39:40.024Z,85.56
2022-12-08T13:42:16.862Z,85.07
2022-12-08T13:48:36.717Z,85.15
2022-12-08T13:57:36.934Z,85.41
2022-12-08T14:00:20.291Z,85.35
2022-12-08T14:02:50.692Z,86.98
2022-12-08T14:05:40.686Z,86.13
2022-12-08T14:08:58.386Z,85.80
2022-12-08T14:11:42.910Z,86.54
2022-12-08T14:15:01.799Z,85.63
2022-12-08T14:17:26.214Z,87.07
2022-12-08T14:20:20.224Z,86.53
2022-12-08T14:22:50.190Z,85.63
2022-12-08T14:25:18.496Z,85.36
2022-12-08T14:27:46.135Z,85.57
2022-12-08T14:30:16.312Z,85.50
2022-12-08T14:32:51.676Z,86.28
2022-12-08T14:35:31.676Z,85.45
2022-12-08T14:38:01.957Z,85.82
2022-12-08T14:40:43.790Z,86.54
2022-12-08T14:43:14.411Z,86.52
2022-12-08T14:45:43.926Z,86.85
2022-12-08T14:48:31.296Z,85.84
2022-12-08T14:51:04.683Z,85.02
2022-12-08T14:53:40.438Z,84.85
2022-12-08T14:56:36.440Z,85.60
2022-12-08T14:59:12.246Z,85.69
2022-12-08T15:02:04.361Z,85.64
2022-12-08T15:04:31.540Z,84.43
2022-12-08T15:07:07.062Z,86.01
2022-12-08T15:09:48.953Z,85.71
2022-12-08T15:12:16.064Z,86.17
2022-12-08T15:15:10.567Z,85.28
2022-12-08T15:17:40.482Z,85.83
2022-12-08T15:20:34.557Z,85.82
2022-12-08T15:23:03.143Z,87.09
2022-12-08T15:25:30.496Z,86.15
2022-12-08T15:27:58.181Z,86.24
2022-12-08T15:30:28.858Z,85.77
2022-12-08T15:32:56.518Z,85.59
2022-12-08T15:35:23.826Z,86.55
2022-12-08T15:37:50.929Z,85.99
2022-12-08T15:40:23.087Z,86.50
2022-12-08T15:42:50.093Z,87.14
2022-12-08T15:45:17.926Z,86.70
2022-12-08T15:47:45.833Z,86.90
2022-12-08T15:50:21.987Z,86.22
2022-12-08T15:52:50.387Z,85.56
2022-12-08T15:55:22.269Z,86.57
2022-12-08T16:00:57.613Z,86.01
2022-12-08T16:07:12.456Z,85.73
2022-12-08T16:09:19.128Z,86.51
2022-12-08T16:12:08.132Z,85.61
2022-12-08T16:17:29.240Z,85.91
2022-12-08T16:19:56.623Z,87.16
2022-12-08T16:25:20.589Z,87.03
2022-12-08T16:28:03.059Z,86.76
2022-12-08T16:30:36.124Z,87.26
2022-12-08T16:33:03.455Z,86.69
2022-12-08T16:35:30.845Z,86.64
2022-12-08T16:37:58.097Z,86.08
2022-12-08T16:40:52.253Z,87.32
2022-12-08T16:43:19.295Z,86.76
2022-12-08T16:45:46.402Z,86.36
2022-12-08T16:48:14.952Z,86.03
2022-12-08T16:50:45.754Z,87.19
2022-12-08T16:53:13.702Z,87.17
2022-12-08T16:55:47.674Z,88.94
2022-12-08T16:58:16.453Z,89.40
2022-12-08T17:00:46.094Z,88.77
2022-12-08T17:03:15.680Z,87.63
2022-12-08T17:05:45.878Z,87.60
2022-12-08T17:08:14.103Z,87.23
2022-12-08T17:10:41.974Z,87.68
2022-12-08T17:13:13.134Z,87.48
2022-12-08T17:15:40.751Z,87.21
2022-12-08T17:18:07.834Z,87.04
2022-12-08T17:20:36.280Z,87.71
2022-12-08T17:23:06.381Z,86.65
2022-12-08T17:25:33.557Z,88.21
2022-12-08T17:28:00.694Z,87.40
2022-12-08T17:30:27.912Z,88.03
2022-12-08T17:32:54.929Z,87.32
2022-12-08T17:35:24.534Z,87.54
2022-12-08T17:37:51.610Z,87.98
2022-12-08T17:40:18.771Z,87.11
2022-12-08T17:42:46.441Z,86.37
2022-12-08T17:45:13.507Z,87.34
2022-12-08T17:47:40.669Z,87.79
2022-12-08T17:50:08.929Z,87.00
2022-12-08T17:52:38.230Z,85.95
2022-12-08T17:55:05.856Z,87.25
2022-12-08T17:57:32.987Z,86.69
2022-12-08T17:59:59.982Z,86.34
2022-12-08T18:02:27.167Z,85.68
2022-12-08T18:04:54.280Z,85.44
2022-12-08T18:07:23.947Z,85.70
2022-12-08T18:09:51.637Z,86.44
2022-12-08T18:12:23.414Z,86.38
2022-12-08T18:14:51.763Z,86.09
2022-12-08T18:17:20.690Z,85.56
2022-12-08T18:19:47.866Z,85.92
2022-12-08T18:22:16.037Z,85.34
2022-12-08T18:24:43.313Z,85.56
2022-12-08T18:27:10.452Z,86.51
2022-12-08T18:29:37.586Z,86.65
2022-12-08T18:32:04.699Z,86.77
2022-12-08T18:34:34.445Z,87.14
2022-12-08T18:37:01.664Z,86.68
2022-12-08T18:39:32.392Z,85.42
2022-12-08T18:42:02.659Z,86.73
2022-12-08T18:44:29.955Z,87.61
2022-12-08T18:46:59.069Z,87.57
2022-12-08T18:49:26.674Z,87.00
2022-12-08T18:51:53.817Z,86.83
2022-12-08T18:54:27.691Z,86.53
2022-12-08T18:57:05.572Z,86.37
2022-12-08T18:59:32.986Z,86.33
2022-12-08T19:02:00.231Z,86.32
2022-12-08T19:04:28.783Z,86.18
2022-12-08T19:06:57.462Z,88.42
2022-12-08T19:09:26.891Z,88.04
2022-12-08T19:11:56.618Z,86.68
2022-12-08T19:14:28.488Z,86.79
2022-12-08T19:16:57.854Z,86.57
2022-12-08T19:19:26.174Z,86.72
2022-12-08T19:21:53.885Z,85.68
2022-12-08T19:24:21.123Z,85.90
2022-12-08T19:26:48.186Z,85.73
2022-12-08T19:29:15.484Z,85.72
2022-12-08T19:31:42.913Z,86.44
2022-12-08T19:34:14.380Z,86.66
2022-12-08T19:36:43.079Z,86.79
2022-12-08T19:39:38.820Z,87.13
2022-12-08T19:42:40.541Z,86.47
2022-12-08T19:45:11.919Z,87.00
2022-12-08T19:47:42.360Z,87.08
2022-12-08T19:50:31.134Z,86.70
2022-12-08T19:52:59.070Z,86.41
2022-12-08T19:55:27.494Z,86.28
2022-12-08T19:57:56.770Z,85.57
2022-12-08T20:00:26.852Z,85.59
2022-12-08T20:02:57.252Z,86.64
2022-12-08T20:05:24.764Z,85.68
2022-12-08T20:07:55.674Z,84.96
2022-12-08T20:10:30.326Z,84.88
2022-12-08T20:13:19.639Z,85.16
2022-12-08T20:15:47.484Z,84.75
2022-12-08T20:18:15.968Z,85.28
2022-12-08T20:20:47.283Z,85.30
2022-12-08T20:23:24.498Z,84.47
2022-12-08T20:25:51.590Z,84.66
2022-12-08T20:28:19.211Z,84.55
2022-12-08T20:30:52.013Z,84.21
2022-12-08T20:33:21.752Z,85.58
2022-12-08T20:35:59.282Z,85.56
2022-12-08T20:38:27.513Z,84.49
2022-12-08T20:41:00.339Z,84.92
2022-12-08T20:43:30.567Z,84.18
2022-12-08T20:45:57.625Z,84.83
2022-12-08T20:48:25.080Z,84.51
2022-12-08T20:50:55.089Z,83.81
2022-12-08T20:53:22.279Z,84.33
2022-12-08T20:55:49.411Z,83.24
2022-12-08T20:58:16.510Z,83.78
2022-12-08T21:00:43.768Z,85.18
2022-12-08T21:03:13.685Z,84.77
2022-12-08T21:05:41.172Z,84.70
2022-12-08T21:08:08.425Z,84.71
2022-12-08T21:10:39.358Z,85.88
2022-12-08T21:13:10.685Z,86.39
2022-12-08T21:15:37.952Z,86.12
2022-12-08T21:18:05.352Z,85.86
2022-12-08T21:20:32.719Z,85.03
2022-12-08T21:23:00.632Z,84.12
2022-12-08T21:25:27.916Z,84.66
2022-12-08T21:27:55.347Z,84.06
2022-12-08T21:30:23.009Z,84.09
2022-12-08T21:32:50.284Z,84.96
2022-12-08T21:35:17.714Z,85.24
2022-12-08T21:37:44.804Z,85.66
2022-12-08T21:40:13.089Z,85.10
2022-12-08T21:42:43.864Z,84.78
2022-12-08T21:45:20.286Z,84.32
2022-12-08T21:47:49.538Z,84.42
2022-12-08T21:50:17.798Z,83.46
2022-12-08T21:52:48.263Z,83.87
2022-12-08T21:55:19.149Z,83.57
2022-12-08T21:57:48.863Z,83.81
2022-12-08T22:00:17.695Z,83.93
2022-12-08T22:02:48.208Z,82.61
2022-12-08T22:05:15.744Z,83.33
2022-12-08T22:07:43.383Z,83.35
2022-12-08T22:10:11.793Z,82.99
2022-12-08T22:12:42.089Z,82.50
2022-12-08T22:15:13.453Z,82.78
2022-12-08T22:17:43.657Z,82.52
2022-12-08T22:20:14.703Z,81.32
2022-12-08T22:22:42.302Z,82.47
2022-12-08T22:25:22.234Z,82.23
2022-12-08T22:27:49.355Z,82.11
2022-12-08T22:30:18.772Z,82.37
2022-12-08T22:32:46.707Z,82.25
2022-12-08T22:35:13.824Z,82.52
2022-12-08T22:37:40.946Z,82.94
2022-12-08T22:40:09.281Z,83.99
2022-12-08T22:42:36.644Z,83.48
2022-12-08T22:45:04.020Z,83.51
2022-12-08T22:47:31.234Z,84.47
2022-12-08T22:49:58.365Z,83.72
2022-12-08T22:52:25.846Z,83.11
2022-12-08T22:54:53.051Z,82.12
2022-12-08T22:57:20.433Z,82.95
2022-12-08T22:59:47.457Z,82.58
2022-12-08T23:02:14.760Z,82.41
2022-12-08T23:04:46.423Z,82.62
2022-12-08T23:07:13.704Z,82.72
2022-12-08T23:09:43.614Z,82.23
2022-12-08T23:12:13.228Z,81.80
2022-12-08T23:14:40.610Z,81.81
2022-12-08T23:17:08.206Z,83.11
2022-12-08T23:19:41.294Z,83.30
2022-12-08T23:22:10.622Z,84.00
2022-12-08T23:24:37.766Z,84.55
2022-12-08T23:27:05.095Z,83.20
2022-12-08T23:29:32.426Z,83.40
2022-12-08T23:31:59.956Z,83.59
2022-12-08T23:34:27.240Z,83.98
2022-12-08T23:36:54.767Z,84.34
2022-12-08T23:39:24.749Z,84.86
2022-12-08T23:41:52.379Z,84.74
2022-12-08T23:44:22.357Z,84.39
2022-12-08T23:46:49.705Z,84.36
2022-12-08T23:49:21.605Z,83.59
2022-12-08T23:51:49.012Z,82.60
2022-12-08T23:54:16.986Z,82.98
2022-12-08T23:56:44.480Z,82.68
2022-12-08T23:59:11.573Z,82.31
